FDX1281 WAHI-WIII
Flight info
| Callsign | FDX1281 |
|---|---|
| Flight time | N/A |
| Altitude | 28000 |
| Route | CA W17S IMU |
| Aircraft | MD11/H-SDE1E2E3FGHIJ2J3J4J5M1RWXY/LB1D1 |
Departure
| Time | 2026-05-06 11:38 |
|---|---|
| Airport | Yogyakarta International Airport (WAHI) |
Arrival
| Time | N/A |
|---|---|
| Airport | Soekarno-Hatta International Airport (WIII) |
| Time | Latitude | Longitude | Altitude | Speed | Heading |
|---|---|---|---|---|---|
| 2026-05-06 11:17 | -7.90212 | 110.06166 | 33 ft | 0 kts | 20° |
| 2026-05-06 11:20 | -7.90222 | 110.06162 | 34 ft | 2 kts | 20° |
| 2026-05-06 11:20 | -7.90235 | 110.06158 | 34 ft | 2 kts | 20° |
| 2026-05-06 11:20 | -7.90249 | 110.06152 | 34 ft | 2 kts | 20° |
| 2026-05-06 11:21 | -7.90264 | 110.06147 | 34 ft | 2 kts | 20° |
| 2026-05-06 11:21 | -7.90274 | 110.06143 | 34 ft | 0 kts | 20° |
| 2026-05-06 11:21 | -7.90287 | 110.06140 | 34 ft | 2 kts | 352° |
| 2026-05-06 11:21 | -7.90302 | 110.06146 | 34 ft | 2 kts | 319° |
| 2026-05-06 11:22 | -7.90310 | 110.06157 | 34 ft | 1 kts | 291° |
| 2026-05-06 11:22 | -7.90313 | 110.06165 | 34 ft | 1 kts | 291° |
| 2026-05-06 11:22 | -7.90315 | 110.06170 | 34 ft | 0 kts | 291° |
| 2026-05-06 11:27 | -7.90314 | 110.06167 | 33 ft | 0 kts | 291° |
| 2026-05-06 11:27 | -7.90311 | 110.06161 | 33 ft | 1 kts | 291° |
| 2026-05-06 11:28 | -7.90306 | 110.06147 | 33 ft | 2 kts | 292° |
| 2026-05-06 11:28 | -7.90296 | 110.06122 | 33 ft | 4 kts | 292° |
| 2026-05-06 11:28 | -7.90280 | 110.06080 | 33 ft | 9 kts | 291° |
| 2026-05-06 11:28 | -7.90251 | 110.06004 | 33 ft | 10 kts | 290° |
| 2026-05-06 11:29 | -7.90250 | 110.06001 | 33 ft | 10 kts | 290° |
| 2026-05-06 11:29 | -7.90231 | 110.05947 | 33 ft | 11 kts | 290° |
| 2026-05-06 11:29 | -7.90217 | 110.05910 | 33 ft | 11 kts | 290° |
| 2026-05-06 11:29 | -7.90199 | 110.05859 | 33 ft | 6 kts | 290° |
| 2026-05-06 11:30 | -7.90183 | 110.05814 | 34 ft | 5 kts | 287° |
| 2026-05-06 11:30 | -7.90182 | 110.05782 | 34 ft | 3 kts | 237° |
| 2026-05-06 11:30 | -7.90198 | 110.05772 | 34 ft | 3 kts | 206° |
| 2026-05-06 11:30 | -7.90233 | 110.05756 | 34 ft | 7 kts | 201° |
| 2026-05-06 11:31 | -7.90280 | 110.05739 | 34 ft | 5 kts | 200° |
| 2026-05-06 11:31 | -7.90297 | 110.05733 | 34 ft | 1 kts | 199° |
| 2026-05-06 11:31 | -7.90310 | 110.05728 | 34 ft | 0 kts | 199° |
| 2026-05-06 11:31 | -7.90321 | 110.05721 | 34 ft | 2 kts | 220° |
| 2026-05-06 11:32 | -7.90329 | 110.05697 | 34 ft | 5 kts | 274° |
| 2026-05-06 11:32 | -7.90309 | 110.05638 | 34 ft | 11 kts | 291° |
| 2026-05-06 11:32 | -7.90269 | 110.05529 | 34 ft | 22 kts | 290° |
| 2026-05-06 11:32 | -7.90222 | 110.05396 | 34 ft | 30 kts | 290° |
| 2026-05-06 11:33 | -7.90137 | 110.05154 | 34 ft | 41 kts | 290° |
| 2026-05-06 11:33 | -7.90038 | 110.04884 | 34 ft | 42 kts | 288° |
| 2026-05-06 11:33 | -7.89968 | 110.04702 | 34 ft | 24 kts | 292° |
| 2026-05-06 11:33 | -7.89919 | 110.04570 | 34 ft | 19 kts | 289° |
| 2026-05-06 11:34 | -7.89868 | 110.04428 | 34 ft | 23 kts | 290° |
| 2026-05-06 11:34 | -7.89832 | 110.04330 | 34 ft | 6 kts | 289° |
| 2026-05-06 11:34 | -7.89826 | 110.04291 | 34 ft | 4 kts | 255° |
| 2026-05-06 11:34 | -7.89859 | 110.04265 | 34 ft | 8 kts | 189° |
| 2026-05-06 11:35 | -7.89902 | 110.04269 | 34 ft | 0 kts | 169° |
| 2026-05-06 11:35 | -7.89904 | 110.04270 | 34 ft | 1 kts | 169° |
| 2026-05-06 11:35 | -7.89926 | 110.04275 | 34 ft | 4 kts | 164° |
| 2026-05-06 11:35 | -7.89950 | 110.04282 | 34 ft | 4 kts | 163° |
| 2026-05-06 11:36 | -7.89988 | 110.04295 | 34 ft | 2 kts | 155° |
| 2026-05-06 11:36 | -7.90003 | 110.04304 | 34 ft | 3 kts | 142° |
| 2026-05-06 11:37 | -7.90011 | 110.04311 | 34 ft | 4 kts | 135° |
| 2026-05-06 11:37 | -7.90040 | 110.04366 | 34 ft | 14 kts | 112° |
| 2026-05-06 11:38 | -7.90113 | 110.04560 | 34 ft | 59 kts | 111° |
| 2026-05-06 11:38 | -7.90352 | 110.05228 | 35 ft | 137 kts | 111° |
| 2026-05-06 11:38 | -7.90741 | 110.06322 | 261 ft | 182 kts | 110° |
| 2026-05-06 11:38 | -7.91120 | 110.07594 | 797 ft | 195 kts | 107° |
| 2026-05-06 11:39 | -7.91506 | 110.08926 | 1500 ft | 199 kts | 112° |
| 2026-05-06 11:39 | -7.92406 | 110.09872 | 2491 ft | 190 kts | 156° |
| 2026-05-06 11:39 | -7.93688 | 110.09853 | 3315 ft | 191 kts | 192° |
| 2026-05-06 11:39 | -7.95036 | 110.09325 | 3486 ft | 224 kts | 194° |
| 2026-05-06 11:40 | -7.96646 | 110.08945 | 3812 ft | 244 kts | 186° |
| 2026-05-06 11:40 | -7.98255 | 110.08132 | 4138 ft | 278 kts | 227° |
| 2026-05-06 11:40 | -7.99019 | 110.06408 | 5437 ft | 275 kts | 263° |
| 2026-05-06 11:40 | -7.98775 | 110.04503 | 6378 ft | 279 kts | 296° |
| 2026-05-06 11:41 | -7.97541 | 110.03013 | 7372 ft | 278 kts | 329° |
| 2026-05-06 11:41 | -7.95807 | 110.02202 | 8413 ft | 278 kts | 337° |
| 2026-05-06 11:41 | -7.94112 | 110.01252 | 9392 ft | 282 kts | 326° |
| 2026-05-06 11:41 | -7.92551 | 110.00007 | 10164 ft | 294 kts | 320° |
| 2026-05-06 11:42 | -7.90982 | 109.98563 | 10705 ft | 313 kts | 319° |
| 2026-05-06 11:42 | -7.89250 | 109.97122 | 11183 ft | 331 kts | 325° |
| 2026-05-06 11:42 | -7.87193 | 109.95926 | 11605 ft | 348 kts | 338° |
| 2026-05-06 11:42 | -7.84846 | 109.95105 | 11959 ft | 365 kts | 343° |
| 2026-05-06 11:43 | -7.82364 | 109.94267 | 12222 ft | 384 kts | 341° |
| 2026-05-06 11:43 | -7.79796 | 109.93312 | 12397 ft | 402 kts | 340° |
| 2026-05-06 11:43 | -7.77138 | 109.92281 | 12508 ft | 418 kts | 340° |
| 2026-05-06 11:44 | -7.71603 | 109.90122 | 13371 ft | 429 kts | 340° |
| 2026-05-06 11:44 | -7.68801 | 109.89032 | 13931 ft | 431 kts | 339° |
| 2026-05-06 11:44 | -7.65984 | 109.87870 | 14421 ft | 435 kts | 336° |
| 2026-05-06 11:44 | -7.63265 | 109.86558 | 14897 ft | 437 kts | 333° |
| 2026-05-06 11:45 | -7.60587 | 109.85091 | 15350 ft | 441 kts | 330° |
| 2026-05-06 11:45 | -7.57902 | 109.83514 | 15798 ft | 444 kts | 330° |
| 2026-05-06 11:45 | -7.55219 | 109.81991 | 16266 ft | 445 kts | 331° |
| 2026-05-06 11:45 | -7.52501 | 109.80467 | 16697 ft | 448 kts | 330° |
| 2026-05-06 11:46 | -7.49763 | 109.78925 | 17111 ft | 451 kts | 330° |
| 2026-05-06 11:46 | -7.47096 | 109.77303 | 17504 ft | 453 kts | 324° |
| 2026-05-06 11:46 | -7.44716 | 109.75232 | 17904 ft | 454 kts | 313° |
| 2026-05-06 11:46 | -7.42734 | 109.72729 | 18289 ft | 456 kts | 303° |
| 2026-05-06 11:47 | -7.41140 | 109.69953 | 18660 ft | 458 kts | 298° |
| 2026-05-06 11:47 | -7.39543 | 109.67175 | 19011 ft | 460 kts | 301° |
| 2026-05-06 11:47 | -7.37825 | 109.64409 | 19376 ft | 463 kts | 302° |
| 2026-05-06 11:47 | -7.36081 | 109.61655 | 19737 ft | 464 kts | 304° |
| 2026-05-06 11:48 | -7.34007 | 109.59132 | 20061 ft | 467 kts | 313° |
| 2026-05-06 11:48 | -7.31789 | 109.56712 | 20374 ft | 469 kts | 311° |
| 2026-05-06 11:48 | -7.30379 | 109.55093 | 20575 ft | 471 kts | 310° |
| 2026-05-06 11:48 | -7.28255 | 109.52595 | 20883 ft | 473 kts | 310° |
| 2026-05-06 11:49 | -7.26070 | 109.50037 | 21210 ft | 474 kts | 311° |
| 2026-05-06 11:49 | -7.23896 | 109.47500 | 21498 ft | 477 kts | 311° |
| 2026-05-06 11:49 | -7.21736 | 109.44974 | 21794 ft | 478 kts | 311° |
| 2026-05-06 11:49 | -7.19532 | 109.42397 | 22072 ft | 480 kts | 311° |
| 2026-05-06 11:50 | -7.17329 | 109.39822 | 22328 ft | 482 kts | 311° |
| 2026-05-06 11:50 | -7.15131 | 109.37254 | 22595 ft | 484 kts | 311° |
| 2026-05-06 11:50 | -7.12920 | 109.34668 | 22860 ft | 486 kts | 311° |
| 2026-05-06 11:50 | -7.10708 | 109.32081 | 23109 ft | 487 kts | 311° |
| 2026-05-06 11:51 | -7.08508 | 109.29508 | 23341 ft | 489 kts | 311° |
| 2026-05-06 11:51 | -7.06271 | 109.26890 | 23561 ft | 491 kts | 311° |
| 2026-05-06 11:51 | -7.04017 | 109.24256 | 23790 ft | 493 kts | 311° |
| 2026-05-06 11:51 | -7.01792 | 109.21655 | 24014 ft | 494 kts | 311° |
| 2026-05-06 11:52 | -6.99551 | 109.19032 | 24226 ft | 496 kts | 311° |
| 2026-05-06 11:52 | -6.97288 | 109.16386 | 24422 ft | 498 kts | 311° |
| 2026-05-06 11:52 | -6.95005 | 109.13717 | 24637 ft | 499 kts | 311° |
| 2026-05-06 11:52 | -6.92722 | 109.11045 | 24828 ft | 501 kts | 311° |
| 2026-05-06 11:53 | -6.90475 | 109.08413 | 25007 ft | 502 kts | 311° |
| 2026-05-06 11:53 | -6.88183 | 109.05730 | 25175 ft | 504 kts | 311° |
| 2026-05-06 11:53 | -6.85880 | 109.03040 | 25358 ft | 505 kts | 311° |
| 2026-05-06 11:53 | -6.83603 | 109.00375 | 25559 ft | 506 kts | 311° |
| 2026-05-06 11:54 | -6.81296 | 108.97673 | 25734 ft | 508 kts | 311° |
| 2026-05-06 11:54 | -6.78975 | 108.94968 | 25898 ft | 509 kts | 311° |
| 2026-05-06 11:54 | -6.76657 | 108.92275 | 26060 ft | 510 kts | 311° |
| 2026-05-06 11:54 | -6.74321 | 108.89553 | 26217 ft | 512 kts | 311° |
| 2026-05-06 11:55 | -6.71988 | 108.86834 | 26352 ft | 513 kts | 311° |
| 2026-05-06 11:55 | -6.69646 | 108.84109 | 26505 ft | 515 kts | 311° |
| 2026-05-06 11:55 | -6.67323 | 108.81405 | 26657 ft | 516 kts | 311° |
| 2026-05-06 11:55 | -6.64948 | 108.78636 | 26804 ft | 517 kts | 311° |
| 2026-05-06 11:56 | -6.62614 | 108.75919 | 26977 ft | 517 kts | 311° |
| 2026-05-06 11:56 | -6.60267 | 108.73186 | 27194 ft | 517 kts | 311° |
| 2026-05-06 11:56 | -6.57913 | 108.70443 | 27425 ft | 516 kts | 311° |
| 2026-05-06 11:56 | -6.55561 | 108.67703 | 27653 ft | 516 kts | 311° |
| 2026-05-06 11:57 | -6.53224 | 108.64981 | 27879 ft | 515 kts | 311° |
| 2026-05-06 11:57 | -6.50871 | 108.62239 | 27973 ft | 514 kts | 311° |
| 2026-05-06 11:57 | -6.48597 | 108.59588 | 27929 ft | 494 kts | 311° |
| 2026-05-06 11:57 | -6.46409 | 108.57038 | 27909 ft | 473 kts | 311° |
| 2026-05-06 11:58 | -6.44296 | 108.54575 | 27921 ft | 450 kts | 311° |
| 2026-05-06 11:58 | -6.42283 | 108.52231 | 27951 ft | 433 kts | 311° |
| 2026-05-06 11:58 | -6.40346 | 108.49973 | 27986 ft | 420 kts | 311° |
| 2026-05-06 11:58 | -6.38483 | 108.47800 | 28006 ft | 408 kts | 311° |
| 2026-05-06 11:59 | -6.36663 | 108.45679 | 27988 ft | 398 kts | 311° |
| 2026-05-06 11:59 | -6.34872 | 108.43593 | 28012 ft | 395 kts | 312° |
| 2026-05-06 11:59 | -6.31211 | 108.39327 | 28052 ft | 420 kts | 311° |
| 2026-05-06 12:00 | -6.29247 | 108.37036 | 28055 ft | 441 kts | 311° |
| 2026-05-06 12:00 | -6.27208 | 108.34656 | 28016 ft | 461 kts | 311° |
| 2026-05-06 12:00 | -6.25238 | 108.32366 | 27979 ft | 479 kts | 311° |
| 2026-05-06 12:00 | -6.23014 | 108.29787 | 27972 ft | 497 kts | 311° |
| 2026-05-06 12:01 | -6.20729 | 108.27131 | 27989 ft | 514 kts | 311° |
| 2026-05-06 12:01 | -6.18351 | 108.24367 | 27635 ft | 538 kts | 311° |
| 2026-05-06 12:01 | -6.15969 | 108.21599 | 27354 ft | 531 kts | 311° |
| 2026-05-06 12:01 | -6.13566 | 108.18806 | 27193 ft | 515 kts | 311° |
| 2026-05-06 12:02 | -6.11273 | 108.16139 | 26945 ft | 503 kts | 311° |
| 2026-05-06 12:02 | -6.08995 | 108.13491 | 26155 ft | 504 kts | 311° |
| 2026-05-06 12:02 | -6.06703 | 108.10824 | 25388 ft | 502 kts | 311° |
| 2026-05-06 12:02 | -6.04420 | 108.08164 | 24864 ft | 496 kts | 312° |
| 2026-05-06 12:03 | -6.02205 | 108.05587 | 24318 ft | 492 kts | 312° |
| 2026-05-06 12:03 | -5.99989 | 108.03007 | 23720 ft | 488 kts | 312° |
| 2026-05-06 12:03 | -5.97949 | 108.00292 | 23071 ft | 485 kts | 301° |
| 2026-05-06 12:03 | -5.96587 | 107.97209 | 22491 ft | 482 kts | 288° |
| 2026-05-06 12:04 | -5.95953 | 107.93964 | 21940 ft | 478 kts | 276° |
| 2026-05-06 12:04 | -5.95939 | 107.90608 | 21354 ft | 473 kts | 266° |
| 2026-05-06 12:04 | -5.96131 | 107.87357 | 20771 ft | 467 kts | 268° |
| 2026-05-06 12:04 | -5.96166 | 107.84177 | 20616 ft | 448 kts | 270° |
| 2026-05-06 12:05 | -5.96164 | 107.81126 | 20442 ft | 426 kts | 270° |
| 2026-05-06 12:05 | -5.96166 | 107.78211 | 20160 ft | 404 kts | 270° |
| 2026-05-06 12:05 | -5.96166 | 107.75493 | 19804 ft | 382 kts | 270° |
| 2026-05-06 12:05 | -5.96165 | 107.72898 | 19149 ft | 370 kts | 270° |
| 2026-05-06 12:06 | -5.96165 | 107.70329 | 18120 ft | 366 kts | 270° |
| 2026-05-06 12:06 | -5.96165 | 107.67848 | 17580 ft | 347 kts | 270° |
| 2026-05-06 12:06 | -5.96165 | 107.65477 | 16823 ft | 340 kts | 270° |
| 2026-05-06 12:06 | -5.96158 | 107.63105 | 15870 ft | 339 kts | 270° |
| 2026-05-06 12:07 | -5.96158 | 107.60776 | 15023 ft | 335 kts | 269° |
| 2026-05-06 12:07 | -5.96165 | 107.58446 | 14198 ft | 332 kts | 269° |
| 2026-05-06 12:07 | -5.96163 | 107.56173 | 13407 ft | 328 kts | 269° |
| 2026-05-06 12:07 | -5.96160 | 107.53887 | 12644 ft | 324 kts | 269° |
| 2026-05-06 12:08 | -5.96160 | 107.51642 | 11887 ft | 322 kts | 269° |
| 2026-05-06 12:08 | -5.96160 | 107.49406 | 11180 ft | 318 kts | 269° |
| 2026-05-06 12:08 | -5.96162 | 107.47227 | 10547 ft | 313 kts | 269° |
| 2026-05-06 12:08 | -5.96165 | 107.45050 | 9935 ft | 308 kts | 269° |
| 2026-05-06 12:09 | -5.96167 | 107.42962 | 9746 ft | 291 kts | 269° |
| 2026-05-06 12:09 | -5.96166 | 107.40881 | 9671 ft | 309 kts | 270° |
| 2026-05-06 12:09 | -5.96165 | 107.38702 | 9562 ft | 311 kts | 269° |
| 2026-05-06 12:09 | -5.96166 | 107.36536 | 9430 ft | 309 kts | 269° |
| 2026-05-06 12:10 | -5.96167 | 107.34406 | 9305 ft | 307 kts | 270° |
| 2026-05-06 12:10 | -5.96167 | 107.32236 | 9182 ft | 306 kts | 270° |
| 2026-05-06 12:10 | -5.96182 | 107.30114 | 8990 ft | 304 kts | 264° |
| 2026-05-06 12:10 | -5.96818 | 107.28105 | 8825 ft | 302 kts | 236° |
| 2026-05-06 12:11 | -5.98241 | 107.26590 | 8702 ft | 300 kts | 212° |
| 2026-05-06 12:11 | -6.00154 | 107.25813 | 8939 ft | 295 kts | 189° |
| 2026-05-06 12:11 | -6.02012 | 107.25140 | 10393 ft | 301 kts | 212° |
| 2026-05-06 12:11 | -6.03682 | 107.23769 | 10393 ft | 309 kts | 227° |
| 2026-05-06 12:12 | -6.04684 | 107.21882 | 10517 ft | 316 kts | 257° |
| 2026-05-06 12:12 | -6.04651 | 107.19712 | 10524 ft | 316 kts | 286° |
| 2026-05-06 12:12 | -6.03890 | 107.17680 | 10917 ft | 304 kts | 292° |
| 2026-05-06 12:12 | -6.03152 | 107.15784 | 12060 ft | 319 kts | 291° |